Maloca, Brazil
Current Conditions -  °F | °C
As of 10:00 AM on Thursday 30 Oct 2014 (Local Time) from SBSN Reporting Station
Few Clouds Few Clouds  
Wind Chill: 86°   Ceiling: Unl
Heat Index: 93°   Visibility: 6mi
Dew Point: 73°   Wind: 15mph
Humidity: 66%   Direction: 60°ENE
Pressure: 29.85"   Gusts: NA
Location:  0.64°N, 55.97°W
Report Text: SBSN 301300Z 06013KT 9999 FEW018 30/23 Q1011
Loading
Personal Weather Stations






























Interactive Weather Map
Tropical Storm Tracking
New forecast layout! Learn more

10-Day Weather Forecast

Advertisements
Track Severe Weather on mobile